Time;durP1;ratioP1;P1;durP2;ratioP2;P2;SDS_P1;SDS_P2;PMS_P1;PMS_P2;Temp;Humidity;BMP_temperature;BMP_pressure;BME280_temperature;BME280_humidity;BME280_pressure;Samples;Min_cycle;Max_cycle;Signal;HPM_P1;HPM_P2
2023/01/06 00:01:20;;;;;;;8.98;3.28;;;;;;;;;;7390649;19;20018;-72
2023/01/06 00:03:50;;;;;;;8.02;3.20;;;;;;;;;;7387362;19;19994;-72
2023/01/06 00:06:16;;;;;;;12.23;3.97;;;;;;;;;;7392052;19;20035;-72
2023/01/06 00:08:42;;;;;;;9.20;4.35;;;;;;;;;;7388765;19;20248;-72
2023/01/06 00:11:10;;;;;;;10.70;3.40;;;;;;;;;;7390211;19;19987;-72
2023/01/06 00:13:36;;;;;;;8.63;3.67;;;;;;;;;;7388744;19;19990;-72
2023/01/06 00:16:14;;;;;;;11.98;3.40;;;;;;;;;;7388707;19;20018;-72
2023/01/06 00:18:40;;;;;;;9.93;3.33;;;;;;;;;;7390230;19;20017;-72
2023/01/06 00:21:06;;;;;;;7.45;3.22;;;;;;;;;;7390344;19;20002;-72
2023/01/06 00:23:32;;;;;;;13.15;3.67;;;;;;;;;;7387790;19;20074;-72
2023/01/06 00:25:58;;;;;;;8.18;3.47;;;;;;;;;;7390471;19;20015;-73
2023/01/06 00:28:23;;;;;;;9.90;3.55;;;;;;;;;;7390448;19;20449;-73
2023/01/06 00:30:49;;;;;;;7.57;3.17;;;;;;;;;;7388546;19;20096;-73
2023/01/06 00:33:14;;;;;;;7.18;3.28;;;;;;;;;;7387574;19;19998;-73
2023/01/06 00:35:40;;;;;;;8.57;3.78;;;;;;;;;;7385340;19;20009;-72
2023/01/06 00:38:05;;;;;;;9.20;3.85;;;;;;;;;;7386692;19;20054;-72
2023/01/06 00:40:30;;;;;;;8.68;3.63;;;;;;;;;;7386386;19;19991;-72
2023/01/06 00:42:56;;;;;;;8.98;3.80;;;;;;;;;;7384314;19;20436;-72
2023/01/06 00:45:21;;;;;;;8.50;4.07;;;;;;;;;;7387854;19;19998;-72
2023/01/06 00:47:46;;;;;;;8.95;3.45;;;;;;;;;;7386436;19;19995;-72
2023/01/06 00:50:12;;;;;;;9.63;3.78;;;;;;;;;;7386299;19;20007;-72
2023/01/06 00:52:37;;;;;;;9.25;3.88;;;;;;;;;;7387403;19;20295;-72
2023/01/06 00:55:03;;;;;;;13.18;4.22;;;;;;;;;;7388914;19;20314;-72
2023/01/06 00:57:28;;;;;;;9.65;4.05;;;;;;;;;;7393198;19;20001;-72
2023/01/06 00:59:54;;;;;;;6.40;3.85;;;;;;;;;;7386384;19;19995;-72
2023/01/06 01:02:20;;;;;;;9.52;4.10;;;;;;;;;;7396331;19;19991;-72
2023/01/06 01:04:45;;;;;;;11.10;4.13;;;;;;;;;;7392835;19;19994;-72
2023/01/06 01:07:10;;;;;;;7.90;4.07;;;;;;;;;;7394898;19;19998;-72
2023/01/06 01:09:36;;;;;;;9.10;3.83;;;;;;;;;;7395232;19;20003;-72
2023/01/06 01:12:11;;;;;;;10.25;3.90;;;;;;;;;;7395854;19;20005;-73
2023/01/06 01:14:38;;;;;;;6.45;3.38;;;;;;;;;;7394662;19;20003;-73
2023/01/06 01:17:04;;;;;;;8.25;4.10;;;;;;;;;;7399980;19;20002;-73
2023/01/06 01:19:30;;;;;;;5.85;3.13;;;;;;;;;;7393786;19;20011;-73
2023/01/06 01:21:55;;;;;;;9.65;3.42;;;;;;;;;;7395384;19;20005;-73
2023/01/06 01:24:21;;;;;;;6.03;3.10;;;;;;;;;;7392769;19;20730;-73
2023/01/06 01:26:47;;;;;;;6.10;3.25;;;;;;;;;;7395418;19;20016;-73
2023/01/06 01:29:14;;;;;;;7.22;2.83;;;;;;;;;;7394814;19;20010;-73
2023/01/06 01:31:40;;;;;;;5.38;2.53;;;;;;;;;;7393636;19;20016;-73
2023/01/06 01:34:06;;;;;;;5.35;2.83;;;;;;;;;;7394472;19;19999;-73
2023/01/06 01:36:31;;;;;;;5.88;2.83;;;;;;;;;;7395068;19;19997;-73
2023/01/06 01:38:57;;;;;;;6.80;2.75;;;;;;;;;;7397749;19;20484;-73
2023/01/06 01:41:24;;;;;;;4.80;2.60;;;;;;;;;;7393633;19;20007;-73
2023/01/06 01:43:57;;;;;;;7.25;2.88;;;;;;;;;;7393529;19;20307;-73
2023/01/06 01:46:39;;;;;;;5.97;2.75;;;;;;;;;;7395285;19;19999;-73
2023/01/06 01:49:13;;;;;;;7.45;3.03;;;;;;;;;;7394350;19;20007;-73
2023/01/06 01:51:42;;;;;;;5.78;2.85;;;;;;;;;;7395164;19;19998;-73
2023/01/06 01:54:13;;;;;;;6.35;3.22;;;;;;;;;;7393552;19;19998;-73
2023/01/06 01:56:43;;;;;;;5.15;2.90;;;;;;;;;;7395452;19;20083;-73
2023/01/06 01:59:14;;;;;;;5.13;3.20;;;;;;;;;;7395425;19;20078;-73
2023/01/06 02:01:40;;;;;;;6.78;3.30;;;;;;;;;;7394806;19;19998;-73
2023/01/06 02:04:06;;;;;;;10.80;3.58;;;;;;;;;;7390232;19;20001;-73
2023/01/06 02:06:31;;;;;;;6.63;3.50;;;;;;;;;;7395924;19;20014;-73
2023/01/06 02:09:07;;;;;;;7.80;3.30;;;;;;;;;;7393830;19;20373;-73
2023/01/06 02:11:35;;;;;;;5.68;3.40;;;;;;;;;;7394262;19;20003;-73
2023/01/06 02:14:11;;;;;;;7.53;3.55;;;;;;;;;;7393442;19;20188;-72
2023/01/06 02:16:48;;;;;;;8.18;3.67;;;;;;;;;;7394032;19;19995;-72
2023/01/06 02:19:26;;;;;;;6.00;3.25;;;;;;;;;;7393412;19;20139;-72
2023/01/06 02:22:24;;;;;;;5.63;2.88;;;;;;;;;;7393748;19;20006;-72
2023/01/06 02:25:01;;;;;;;5.57;3.10;;;;;;;;;;7391227;19;20420;-72
2023/01/06 02:27:54;;;;;;;6.50;2.80;;;;;;;;;;7394230;19;19994;-73
2023/01/06 02:30:22;;;;;;;8.80;3.38;;;;;;;;;;7392255;19;20437;-73
2023/01/06 02:33:11;;;;;;;6.75;3.35;;;;;;;;;;7392480;19;20368;-72
2023/01/06 02:36:23;;;;;;;5.20;3.20;;;;;;;;;;7391628;19;20508;-72
2023/01/06 02:38:54;;;;;;;5.35;2.88;;;;;;;;;;7389611;19;20064;-72
2023/01/06 02:41:22;;;;;;;5.32;2.85;;;;;;;;;;7392817;19;19991;-72
2023/01/06 02:44:07;;;;;;;6.47;2.50;;;;;;;;;;7390711;19;20015;-72
2023/01/06 02:46:51;;;;;;;3.97;2.17;;;;;;;;;;7392977;19;20019;-72
2023/01/06 02:49:31;;;;;;;3.10;1.90;;;;;;;;;;7392280;19;19998;-72
2023/01/06 02:52:11;;;;;;;3.08;1.63;;;;;;;;;;7391533;19;19998;-72
2023/01/06 02:54:55;;;;;;;2.55;1.38;;;;;;;;;;7391402;19;19990;-72
2023/01/06 02:57:36;;;;;;;2.10;1.50;;;;;;;;;;7392803;19;20070;-72
2023/01/06 03:00:16;;;;;;;1.55;1.40;;;;;;;;;;7389379;19;20009;-72
2023/01/06 03:02:45;;;;;;;2.92;1.33;;;;;;;;;;7389452;19;20014;-72
2023/01/06 03:05:15;;;;;;;1.95;1.40;;;;;;;;;;7390290;19;19994;-72
2023/01/06 03:07:42;;;;;;;1.33;1.23;;;;;;;;;;7397083;19;19999;-72
2023/01/06 03:10:10;;;;;;;1.30;1.20;;;;;;;;;;7391066;19;20344;-73
2023/01/06 03:12:47;;;;;;;1.45;1.23;;;;;;;;;;7390852;19;20320;-72
2023/01/06 03:15:12;;;;;;;1.10;1.00;;;;;;;;;;7390264;19;20002;-72
2023/01/06 03:17:38;;;;;;;1.52;1.13;;;;;;;;;;7391743;19;20008;-72
2023/01/06 03:20:03;;;;;;;1.30;1.20;;;;;;;;;;7393987;19;20446;-72
2023/01/06 03:22:30;;;;;;;1.13;1.00;;;;;;;;;;7391127;19;19987;-72
2023/01/06 03:24:55;;;;;;;1.42;1.10;;;;;;;;;;7388906;19;20020;-72
2023/01/06 03:27:24;;;;;;;1.10;1.00;;;;;;;;;;7390175;19;19999;-72
2023/01/06 03:29:50;;;;;;;1.13;0.95;;;;;;;;;;7390794;19;20006;-72
2023/01/06 03:32:31;;;;;;;1.73;1.27;;;;;;;;;;7391439;19;19995;-72
2023/01/06 03:35:16;;;;;;;1.48;1.30;;;;;;;;;;7391089;19;20006;-73
2023/01/06 03:38:00;;;;;;;1.48;1.38;;;;;;;;;;7391375;19;20421;-72
2023/01/06 03:40:38;;;;;;;2.10;1.50;;;;;;;;;;7389860;19;20011;-72
2023/01/06 03:43:29;;;;;;;2.15;1.33;;;;;;;;;;7389483;19;20003;-72
2023/01/06 03:46:17;;;;;;;1.90;1.40;;;;;;;;;;7391221;19;20001;-73
2023/01/06 03:49:05;;;;;;;2.47;1.30;;;;;;;;;;7394280;19;19998;-72
2023/01/06 03:51:48;;;;;;;2.05;1.50;;;;;;;;;;7391460;19;19999;-72
2023/01/06 03:54:25;;;;;;;2.85;1.48;;;;;;;;;;7389840;19;20005;-72
2023/01/06 03:57:02;;;;;;;2.00;1.40;;;;;;;;;;7390915;19;20002;-72
2023/01/06 03:59:30;;;;;;;1.85;1.40;;;;;;;;;;7388065;19;20003;-72
2023/01/06 04:01:57;;;;;;;2.00;1.33;;;;;;;;;;7390462;19;20013;-72
2023/01/06 04:04:22;;;;;;;1.38;1.25;;;;;;;;;;7388526;19;20456;-72
2023/01/06 04:06:47;;;;;;;1.48;1.20;;;;;;;;;;7391455;19;20036;-72
2023/01/06 04:09:13;;;;;;;1.55;1.10;;;;;;;;;;7389464;19;20003;-72
2023/01/06 04:14:23;;;;;;;1.20;1.10;;;;;;;;;;7389196;19;20013;-73
2023/01/06 04:16:48;;;;;;;0.80;0.80;;;;;;;;;;7389977;19;20036;-72
2023/01/06 04:19:13;;;;;;;1.58;0.85;;;;;;;;;;7389244;19;20006;-72
2023/01/06 04:21:39;;;;;;;0.75;0.57;;;;;;;;;;7389776;19;20027;-73
2023/01/06 04:24:04;;;;;;;1.17;0.60;;;;;;;;;;7387648;19;20036;-72
2023/01/06 04:26:30;;;;;;;0.90;0.77;;;;;;;;;;7389669;19;20014;-73
2023/01/06 04:28:55;;;;;;;0.57;0.55;;;;;;;;;;7387903;19;20009;-74
2023/01/06 04:31:21;;;;;;;0.65;0.65;;;;;;;;;;7389483;19;20003;-73
2023/01/06 04:33:46;;;;;;;0.30;0.30;;;;;;;;;;7388267;19;20304;-73
2023/01/06 04:36:11;;;;;;;0.63;0.60;;;;;;;;;;7394258;19;20002;-73
2023/01/06 04:38:37;;;;;;;1.25;0.70;;;;;;;;;;7397064;19;20011;-73
2023/01/06 04:41:02;;;;;;;0.57;0.57;;;;;;;;;;7396728;19;19999;-72
2023/01/06 04:43:27;;;;;;;0.63;0.50;;;;;;;;;;7394877;19;19995;-72
2023/01/06 04:45:53;;;;;;;2.17;0.52;;;;;;;;;;7396797;19;19999;-72
2023/01/06 04:48:18;;;;;;;0.45;0.38;;;;;;;;;;7397394;19;20002;-72
2023/01/06 04:50:43;;;;;;;2.72;0.70;;;;;;;;;;7393864;19;20003;-72
2023/01/06 04:53:10;;;;;;;0.38;0.38;;;;;;;;;;7393539;19;20010;-72
2023/01/06 04:55:39;;;;;;;0.40;0.40;;;;;;;;;;7396632;19;20002;-72
2023/01/06 04:58:05;;;;;;;1.45;0.68;;;;;;;;;;7396956;19;20037;-72
2023/01/06 05:00:30;;;;;;;0.98;0.70;;;;;;;;;;7392612;19;20010;-72
2023/01/06 05:02:56;;;;;;;0.68;0.40;;;;;;;;;;7394266;19;20090;-73
2023/01/06 05:05:21;;;;;;;0.43;0.40;;;;;;;;;;7397640;19;20648;-73
2023/01/06 05:07:46;;;;;;;0.63;0.60;;;;;;;;;;7399866;19;20336;-73
2023/01/06 05:10:12;;;;;;;0.98;0.77;;;;;;;;;;7397153;19;20005;-73
2023/01/06 05:12:37;;;;;;;0.30;0.30;;;;;;;;;;7397190;19;19990;-74
2023/01/06 05:15:03;;;;;;;0.60;0.60;;;;;;;;;;7396628;19;19998;-73
2023/01/06 05:17:29;;;;;;;1.50;0.80;;;;;;;;;;7396350;19;20026;-73
2023/01/06 05:19:54;;;;;;;2.40;0.73;;;;;;;;;;7393173;19;20015;-73
2023/01/06 05:22:19;;;;;;;1.17;0.60;;;;;;;;;;7410622;19;20018;-81
2023/01/06 05:24:45;;;;;;;1.88;0.80;;;;;;;;;;7422149;19;20092;-79
2023/01/06 05:27:11;;;;;;;0.75;0.60;;;;;;;;;;7426700;19;20019;-80
2023/01/06 05:29:36;;;;;;;2.08;0.90;;;;;;;;;;7425820;19;20007;-82
2023/01/06 05:32:03;;;;;;;0.55;0.55;;;;;;;;;;7425269;19;19997;-81
2023/01/06 05:34:28;;;;;;;1.27;0.80;;;;;;;;;;7417246;19;20414;-80
2023/01/06 05:36:54;;;;;;;1.58;0.90;;;;;;;;;;7414467;19;19999;-80
2023/01/06 05:39:20;;;;;;;1.35;0.82;;;;;;;;;;7420717;19;19998;-82
2023/01/06 05:41:45;;;;;;;2.42;0.75;;;;;;;;;;7415930;19;20003;-81
2023/01/06 05:44:10;;;;;;;1.33;0.60;;;;;;;;;;7412294;19;20038;-80
2023/01/06 05:46:35;;;;;;;0.80;0.70;;;;;;;;;;7411520;19;20441;-78
2023/01/06 05:49:01;;;;;;;1.95;0.80;;;;;;;;;;7398689;19;20003;-81
2023/01/06 05:51:27;;;;;;;1.10;0.65;;;;;;;;;;7396137;19;20347;-81
2023/01/06 05:53:52;;;;;;;2.22;0.80;;;;;;;;;;7396722;19;20014;-80
2023/01/06 05:56:19;;;;;;;0.43;0.43;;;;;;;;;;7397326;19;20488;-82
2023/01/06 05:58:46;;;;;;;1.70;1.08;;;;;;;;;;7399306;19;20002;-82
2023/01/06 06:01:20;;;;;;;28.67;12.52;;;;;;;;;;7396900;19;20011;-81
2023/01/06 06:03:46;;;;;;;2.65;1.20;;;;;;;;;;7395450;19;20022;-81
2023/01/06 06:06:11;;;;;;;1.17;0.80;;;;;;;;;;7396898;19;20004;-81
2023/01/06 06:08:37;;;;;;;1.88;1.30;;;;;;;;;;7397082;19;20025;-80
2023/01/06 06:11:04;;;;;;;4.95;1.98;;;;;;;;;;7397137;19;20015;-81
2023/01/06 06:13:30;;;;;;;7.88;3.60;;;;;;;;;;7395396;19;19991;-82
2023/01/06 06:16:09;;;;;;;11.93;6.25;;;;;;;;;;7396483;19;20551;-81
2023/01/06 06:18:41;;;;;;;4.80;1.55;;;;;;;;;;7396464;19;20018;-83
2023/01/06 06:21:07;;;;;;;1.88;0.90;;;;;;;;;;7396702;19;19998;-81
2023/01/06 06:23:32;;;;;;;1.42;0.85;;;;;;;;;;7394614;19;20469;-82
2023/01/06 06:25:57;;;;;;;1.70;0.90;;;;;;;;;;7396372;19;19995;-81
2023/01/06 06:28:23;;;;;;;0.80;0.80;;;;;;;;;;7396267;19;20336;-82
2023/01/06 06:30:48;;;;;;;2.92;0.90;;;;;;;;;;7396234;19;19994;-84
2023/01/06 06:33:13;;;;;;;0.80;0.80;;;;;;;;;;7393028;19;19998;-82
2023/01/06 06:35:39;;;;;;;3.80;0.98;;;;;;;;;;7395949;19;20364;-82
2023/01/06 06:38:04;;;;;;;1.80;0.80;;;;;;;;;;7396022;19;19997;-82
2023/01/06 06:40:29;;;;;;;2.15;1.00;;;;;;;;;;7395635;19;20366;-83
2023/01/06 06:42:55;;;;;;;1.05;0.93;;;;;;;;;;7393035;19;20008;-81
2023/01/06 06:45:20;;;;;;;2.28;0.90;;;;;;;;;;7393279;19;20541;-81
2023/01/06 06:47:45;;;;;;;1.55;1.02;;;;;;;;;;7395659;19;20098;-81
2023/01/06 06:50:11;;;;;;;1.10;0.93;;;;;;;;;;7394916;19;20008;-83
2023/01/06 06:52:37;;;;;;;4.43;1.20;;;;;;;;;;7392009;19;19998;-81
2023/01/06 06:55:02;;;;;;;1.52;1.10;;;;;;;;;;7393598;19;20019;-80
2023/01/06 06:57:28;;;;;;;2.08;1.05;;;;;;;;;;7394048;19;19998;-81
2023/01/06 06:59:53;;;;;;;6.57;1.20;;;;;;;;;;7393438;19;20467;-81
2023/01/06 07:02:19;;;;;;;1.38;0.82;;;;;;;;;;7390695;19;20006;-81
2023/01/06 07:04:44;;;;;;;0.82;0.82;;;;;;;;;;7390017;19;20326;-80
2023/01/06 07:07:09;;;;;;;3.30;1.05;;;;;;;;;;7394545;19;19998;-83
2023/01/06 07:09:35;;;;;;;0.95;0.90;;;;;;;;;;7393598;19;20019;-81
2023/01/06 07:12:00;;;;;;;0.80;0.80;;;;;;;;;;7392010;19;20015;-83
2023/01/06 07:14:25;;;;;;;1.48;1.00;;;;;;;;;;7396120;19;20010;-82
2023/01/06 07:16:51;;;;;;;1.20;0.93;;;;;;;;;;7398639;19;19999;-82
2023/01/06 07:19:16;;;;;;;2.60;1.00;;;;;;;;;;7393972;19;19995;-81
2023/01/06 07:21:41;;;;;;;2.00;1.02;;;;;;;;;;7393823;19;20025;-80
2023/01/06 07:24:07;;;;;;;1.73;0.90;;;;;;;;;;7392861;19;20006;-81
2023/01/06 07:26:32;;;;;;;4.22;1.40;;;;;;;;;;7393762;19;19995;-81
2023/01/06 07:28:58;;;;;;;1.75;1.40;;;;;;;;;;7394804;19;20441;-81
2023/01/06 07:31:23;;;;;;;2.38;1.30;;;;;;;;;;7393457;19;20392;-82
2023/01/06 07:33:48;;;;;;;3.28;1.30;;;;;;;;;;7395706;19;20050;-81
2023/01/06 07:36:13;;;;;;;1.55;1.00;;;;;;;;;;7397921;19;20003;-81
2023/01/06 07:38:39;;;;;;;2.95;0.80;;;;;;;;;;7397468;19;20387;-83
2023/01/06 07:41:04;;;;;;;1.92;1.02;;;;;;;;;;7392510;19;20367;-82
2023/01/06 07:43:29;;;;;;;0.70;0.70;;;;;;;;;;7392375;19;20385;-84
2023/01/06 07:45:55;;;;;;;1.00;0.90;;;;;;;;;;7393791;19;20359;-83
2023/01/06 07:48:23;;;;;;;0.90;0.60;;;;;;;;;;7391228;19;20094;-82
2023/01/06 07:50:48;;;;;;;1.20;1.00;;;;;;;;;;7396380;19;20010;-83
2023/01/06 07:53:14;;;;;;;1.08;0.82;;;;;;;;;;7390504;19;20007;-83
2023/01/06 07:55:39;;;;;;;4.78;1.40;;;;;;;;;;7392979;19;19990;-81
2023/01/06 07:58:06;;;;;;;1.73;1.10;;;;;;;;;;7397634;19;20066;-82
2023/01/06 08:00:32;;;;;;;2.70;0.98;;;;;;;;;;7397766;19;20003;-81
2023/01/06 08:02:57;;;;;;;2.42;0.90;;;;;;;;;;7390102;19;20002;-82
2023/01/06 08:05:23;;;;;;;2.45;1.00;;;;;;;;;;7393171;19;19998;-83
2023/01/06 08:07:48;;;;;;;4.15;1.20;;;;;;;;;;7393603;19;19994;-82
2023/01/06 08:10:14;;;;;;;1.05;0.88;;;;;;;;;;7395135;19;19995;-82
2023/01/06 08:12:39;;;;;;;2.90;1.00;;;;;;;;;;7392034;19;20136;-83
2023/01/06 08:15:05;;;;;;;1.23;0.80;;;;;;;;;;7394809;19;20392;-76
2023/01/06 08:17:31;;;;;;;1.35;1.10;;;;;;;;;;7397757;19;20007;-82
2023/01/06 08:19:56;;;;;;;0.77;0.77;;;;;;;;;;7395251;19;20366;-80
2023/01/06 08:22:21;;;;;;;2.15;0.93;;;;;;;;;;7390361;19;20067;-76
2023/01/06 08:24:47;;;;;;;2.35;0.80;;;;;;;;;;7394127;19;19994;-79
2023/01/06 08:27:12;;;;;;;1.73;0.80;;;;;;;;;;7394098;19;19995;-78
2023/01/06 08:29:37;;;;;;;0.80;0.80;;;;;;;;;;7396936;19;20475;-79
2023/01/06 08:32:03;;;;;;;4.22;0.95;;;;;;;;;;7393433;19;19999;-79
2023/01/06 08:34:28;;;;;;;3.33;0.90;;;;;;;;;;7390613;19;20024;-78
2023/01/06 08:36:53;;;;;;;1.20;1.02;;;;;;;;;;7391779;19;20005;-79
2023/01/06 08:39:19;;;;;;;3.50;1.42;;;;;;;;;;7392541;19;20065;-78
2023/01/06 08:41:46;;;;;;;0.70;0.70;;;;;;;;;;7390555;19;20003;-80
2023/01/06 08:44:11;;;;;;;2.85;0.70;;;;;;;;;;7388310;19;20022;-79
2023/01/06 08:46:37;;;;;;;1.75;0.70;;;;;;;;;;7394720;19;20437;-78
2023/01/06 08:49:03;;;;;;;4.18;0.98;;;;;;;;;;7386448;19;20037;-79
2023/01/06 08:51:28;;;;;;;1.63;0.85;;;;;;;;;;7382869;19;20419;-78
2023/01/06 08:53:54;;;;;;;0.70;0.70;;;;;;;;;;7380809;19;19998;-78
2023/01/06 08:56:25;;;;;;;2.55;0.90;;;;;;;;;;7382338;19;20003;-77
2023/01/06 08:58:57;;;;;;;3.08;0.90;;;;;;;;;;7382072;19;20006;-79
2023/01/06 09:01:28;;;;;;;2.60;0.95;;;;;;;;;;7382089;19;20353;-77
2023/01/06 09:03:53;;;;;;;;;;;;;;;;;;7383850;19;20003;-79
2023/01/06 09:06:20;;;;;;;0.82;0.70;;;;;;;;;;7391606;19;19943;-77
2023/01/06 09:08:47;;;;;;;1.60;0.90;;;;;;;;;;7390807;19;20010;-79
2023/01/06 09:11:13;;;;;;;2.65;0.75;;;;;;;;;;7391019;19;20070;-77
2023/01/06 09:13:39;;;;;;;1.13;0.80;;;;;;;;;;7390060;19;19999;-79
2023/01/06 09:16:08;;;;;;;0.60;0.60;;;;;;;;;;7391066;19;20047;-78
2023/01/06 09:18:34;;;;;;;2.53;0.70;;;;;;;;;;7392576;19;19995;-79
2023/01/06 09:20:59;;;;;;;0.65;0.60;;;;;;;;;;7391847;19;20006;-78
2023/01/06 09:23:24;;;;;;;2.15;0.80;;;;;;;;;;7396525;19;20006;-78
2023/01/06 09:25:50;;;;;;;1.95;0.98;;;;;;;;;;7398068;19;20006;-78
2023/01/06 09:28:15;;;;;;;1.45;0.90;;;;;;;;;;7397609;19;20005;-78
2023/01/06 09:30:41;;;;;;;1.25;1.10;;;;;;;;;;7397691;19;20114;-78
2023/01/06 09:33:06;;;;;;;0.93;0.80;;;;;;;;;;7394499;19;20027;-77
2023/01/06 09:35:32;;;;;;;2.45;0.75;;;;;;;;;;7398372;19;19995;-78
2023/01/06 09:37:57;;;;;;;1.00;0.68;;;;;;;;;;7397752;19;20002;-78
2023/01/06 09:40:33;;;;;;;1.92;0.85;;;;;;;;;;7397777;19;20476;-78
2023/01/06 09:43:15;;;;;;;0.85;0.82;;;;;;;;;;7392812;19;20345;-78
2023/01/06 09:45:47;;;;;;;2.33;0.90;;;;;;;;;;7395893;19;19999;-79
2023/01/06 09:48:20;;;;;;;2.78;0.77;;;;;;;;;;7398166;19;20003;-79
2023/01/06 09:50:52;;;;;;;0.93;0.93;;;;;;;;;;7398521;19;20468;-78
2023/01/06 09:53:22;;;;;;;0.80;0.80;;;;;;;;;;7395744;19;19994;-79
2023/01/06 09:55:52;;;;;;;2.13;0.77;;;;;;;;;;7398196;19;20006;-79
2023/01/06 09:58:23;;;;;;;1.33;0.60;;;;;;;;;;7399503;19;20023;-80
2023/01/06 10:00:51;;;;;;;1.92;0.90;;;;;;;;;;7398740;19;19995;-79
2023/01/06 10:03:22;;;;;;;2.50;0.90;;;;;;;;;;7394700;19;20031;-79
2023/01/06 10:06:01;;;;;;;0.60;0.50;;;;;;;;;;7395689;19;20521;-78
2023/01/06 10:08:42;;;;;;;0.60;0.60;;;;;;;;;;7394988;19;20358;-79
2023/01/06 10:11:33;;;;;;;1.30;0.67;;;;;;;;;;7397103;19;20006;-78
2023/01/06 10:14:09;;;;;;;;;;;;;;;;;;7396625;19;20240;-79
2023/01/06 10:16:48;;;;;;;1.35;0.70;;;;;;;;;;7397172;19;19915;-79
2023/01/06 10:19:17;;;;;;;1.88;0.85;;;;;;;;;;7396978;19;20009;-80
2023/01/06 10:21:55;;;;;;;0.60;0.40;;;;;;;;;;7395015;19;20007;-79
2023/01/06 10:24:21;;;;;;;0.77;0.77;;;;;;;;;;7394235;19;20005;-77
2023/01/06 10:26:53;;;;;;;1.00;0.60;;;;;;;;;;7395639;19;19998;-79
2023/01/06 10:29:19;;;;;;;1.15;0.88;;;;;;;;;;7387244;19;20013;-75
2023/01/06 10:31:47;;;;;;;2.17;0.68;;;;;;;;;;7392278;19;20070;-79
2023/01/06 10:34:20;;;;;;;0.70;0.60;;;;;;;;;;7388434;19;20023;-76
2023/01/06 10:37:03;;;;;;;0.57;0.57;;;;;;;;;;7392917;19;20330;-74
2023/01/06 10:39:30;;;;;;;1.17;0.68;;;;;;;;;;7393827;19;19999;-75
2023/01/06 10:45:04;;;;;;;1.48;0.80;;;;;;;;;;7391693;19;20060;-77
2023/01/06 10:47:31;;;;;;;1.63;0.98;;;;;;;;;;7396307;19;20002;-76
2023/01/06 10:49:58;;;;;;;0.68;0.60;;;;;;;;;;7392679;19;20440;-76
2023/01/06 10:52:25;;;;;;;1.75;0.68;;;;;;;;;;7392816;19;20066;-76
2023/01/06 10:54:55;;;;;;;2.80;0.65;;;;;;;;;;7392498;19;20460;-76
2023/01/06 10:57:28;;;;;;;0.57;0.57;;;;;;;;;;7392821;19;20342;-77
2023/01/06 11:00:07;;;;;;;0.95;0.68;;;;;;;;;;7392295;19;20002;-77
2023/01/06 11:02:32;;;;;;;0.75;0.75;;;;;;;;;;7389689;19;20114;-75
2023/01/06 11:05:00;;;;;;;1.48;0.73;;;;;;;;;;7390083;19;20348;-75
2023/01/06 11:07:26;;;;;;;1.45;0.80;;;;;;;;;;7393206;19;19995;-75
2023/01/06 11:09:51;;;;;;;0.77;0.77;;;;;;;;;;7392068;19;19998;-75
2023/01/06 11:12:21;;;;;;;1.35;0.80;;;;;;;;;;7391050;19;19991;-75
2023/01/06 11:14:58;;;;;;;1.20;0.80;;;;;;;;;;7388908;19;19995;-74
2023/01/06 11:17:24;;;;;;;0.68;0.60;;;;;;;;;;7377391;19;20002;-76
2023/01/06 11:20:27;;;;;;;0.55;0.55;;;;;;;;;;7387150;19;20078;-74
2023/01/06 11:22:52;;;;;;;2.30;0.77;;;;;;;;;;7382337;19;20428;-76
2023/01/06 11:25:20;;;;;;;5.00;1.17;;;;;;;;;;7387242;19;20070;-73
2023/01/06 11:31:00;;;;;;;0.90;0.65;;;;;;;;;;7385065;19;20010;-68
2023/01/06 11:33:27;;;;;;;1.38;0.90;;;;;;;;;;7383784;19;20074;-68
2023/01/06 11:35:54;;;;;;;0.43;0.43;;;;;;;;;;7375533;19;19994;-67
2023/01/06 11:38:20;;;;;;;1.33;0.63;;;;;;;;;;7369511;19;20491;-67
2023/01/06 11:40:49;;;;;;;2.15;0.70;;;;;;;;;;7383476;19;20003;-67
2023/01/06 11:43:19;;;;;;;1.35;0.88;;;;;;;;;;7382686;19;20065;-68
2023/01/06 11:45:56;;;;;;;2.45;0.90;;;;;;;;;;7381525;19;20006;-69
2023/01/06 11:48:26;;;;;;;1.15;0.93;;;;;;;;;;7384706;19;20573;-68
2023/01/06 11:50:55;;;;;;;2.38;1.20;;;;;;;;;;7378722;19;20018;-68
2023/01/06 11:53:23;;;;;;;0.80;0.80;;;;;;;;;;7366909;19;20082;-68
2023/01/06 11:56:04;;;;;;;0.88;0.80;;;;;;;;;;7382784;19;20008;-68
2023/01/06 11:58:42;;;;;;;1.17;1.00;;;;;;;;;;7385141;19;20009;-68
2023/01/06 12:01:17;;;;;;;2.38;1.10;;;;;;;;;;7380317;19;20013;-67
2023/01/06 12:03:44;;;;;;;1.55;1.10;;;;;;;;;;7379688;19;20007;-68
2023/01/06 12:06:13;;;;;;;1.02;0.90;;;;;;;;;;7383914;19;20446;-67
2023/01/06 12:08:53;;;;;;;1.58;1.08;;;;;;;;;;7381741;19;20504;-68
2023/01/06 12:11:45;;;;;;;2.10;1.20;;;;;;;;;;7383139;19;20077;-70
2023/01/06 12:14:17;;;;;;;1.75;1.00;;;;;;;;;;7383337;19;20006;-73
2023/01/06 12:17:01;;;;;;;;;;;;;;;;;;7384305;19;20318;-71
2023/01/06 12:19:35;;;;;;;1.48;1.10;;;;;;;;;;7389808;19;19929;-72
2023/01/06 12:22:02;;;;;;;2.35;1.10;;;;;;;;;;7386842;19;20006;-71
2023/01/06 12:24:28;;;;;;;3.35;1.20;;;;;;;;;;7388504;19;20009;-71
2023/01/06 12:26:55;;;;;;;1.33;1.10;;;;;;;;;;7386815;19;20006;-72
2023/01/06 12:29:21;;;;;;;0.80;0.80;;;;;;;;;;7388346;19;20002;-71
2023/01/06 12:31:56;;;;;;;1.85;1.10;;;;;;;;;;7382939;19;20135;-69
2023/01/06 12:34:38;;;;;;;1.83;1.13;;;;;;;;;;7389587;19;20066;-69
2023/01/06 12:37:29;;;;;;;0.90;0.90;;;;;;;;;;7386085;19;20445;-68
2023/01/06 12:40:14;;;;;;;1.17;0.88;;;;;;;;;;7384570;19;20006;-68
2023/01/06 12:42:42;;;;;;;1.88;0.95;;;;;;;;;;7383901;19;20010;-69
2023/01/06 12:45:16;;;;;;;1.20;1.10;;;;;;;;;;7387307;19;20348;-70
2023/01/06 12:47:51;;;;;;;1.77;1.10;;;;;;;;;;7385827;19;20008;-68
2023/01/06 12:50:36;;;;;;;1.80;1.02;;;;;;;;;;7386517;19;20006;-71
2023/01/06 12:53:07;;;;;;;1.23;1.10;;;;;;;;;;7383097;19;20099;-72
2023/01/06 12:55:47;;;;;;;2.35;1.10;;;;;;;;;;7388311;19;20109;-71
2023/01/06 12:58:43;;;;;;;2.08;1.23;;;;;;;;;;7392932;19;20033;-71
2023/01/06 13:01:34;;;;;;;2.85;1.00;;;;;;;;;;7395756;19;19991;-70
2023/01/06 13:04:14;;;;;;;2.75;0.82;;;;;;;;;;7389203;19;20010;-70
2023/01/06 13:06:45;;;;;;;2.33;0.93;;;;;;;;;;7395748;19;19998;-72
2023/01/06 13:09:11;;;;;;;3.50;1.13;;;;;;;;;;7392339;19;19999;-72
2023/01/06 13:11:42;;;;;;;1.88;1.10;;;;;;;;;;7395951;19;20016;-72
2023/01/06 13:14:10;;;;;;;3.03;1.00;;;;;;;;;;7389914;19;19999;-73
2023/01/06 13:16:46;;;;;;;1.63;1.00;;;;;;;;;;7395705;19;20002;-72
2023/01/06 13:19:24;;;;;;;2.28;0.90;;;;;;;;;;7390616;19;20025;-72
2023/01/06 13:21:52;;;;;;;3.58;1.02;;;;;;;;;;7391867;19;20037;-72
2023/01/06 13:24:37;;;;;;;2.28;1.10;;;;;;;;;;7391109;19;19999;-71
2023/01/06 13:27:18;;;;;;;0.80;0.80;;;;;;;;;;7393645;19;20524;-71
2023/01/06 13:30:05;;;;;;;0.70;0.70;;;;;;;;;;7388967;19;20002;-72
2023/01/06 13:32:46;;;;;;;1.98;0.80;;;;;;;;;;7393833;19;20002;-71
2023/01/06 13:35:42;;;;;;;1.65;1.08;;;;;;;;;;7393913;19;19999;-72
2023/01/06 13:38:19;;;;;;;0.75;0.75;;;;;;;;;;7396671;19;20490;-71
2023/01/06 13:40:47;;;;;;;0.85;0.82;;;;;;;;;;7393660;19;19999;-70
2023/01/06 13:43:24;;;;;;;2.05;0.95;;;;;;;;;;7387213;19;19999;-70
2023/01/06 13:45:53;;;;;;;1.67;0.82;;;;;;;;;;7389533;19;20429;-70
2023/01/06 13:48:23;;;;;;;3.65;1.10;;;;;;;;;;7390663;19;20442;-70
2023/01/06 13:50:49;;;;;;;1.25;1.00;;;;;;;;;;7390532;19;20006;-71
2023/01/06 13:53:18;;;;;;;1.55;0.82;;;;;;;;;;7388871;19;20003;-70
2023/01/06 13:55:44;;;;;;;1.33;0.90;;;;;;;;;;7395332;19;19998;-70
2023/01/06 13:58:24;;;;;;;1.30;1.10;;;;;;;;;;7391585;19;20030;-70
2023/01/06 14:01:17;;;;;;;1.00;0.77;;;;;;;;;;7399356;19;20031;-71
2023/01/06 14:03:43;;;;;;;2.80;1.10;;;;;;;;;;7392517;19;19990;-71
2023/01/06 14:06:11;;;;;;;0.95;0.95;;;;;;;;;;7394719;19;20003;-70
2023/01/06 14:08:47;;;;;;;3.35;1.00;;;;;;;;;;7393492;19;20011;-71
2023/01/06 14:11:24;;;;;;;1.83;1.00;;;;;;;;;;7395015;19;20048;-71
2023/01/06 14:13:56;;;;;;;1.73;1.08;;;;;;;;;;7393104;19;19995;-71
2023/01/06 14:16:36;;;;;;;1.15;1.00;;;;;;;;;;7390994;19;20433;-71
2023/01/06 14:19:12;;;;;;;1.25;1.02;;;;;;;;;;7394889;19;20102;-72
2023/01/06 14:21:38;;;;;;;1.20;1.10;;;;;;;;;;7392888;19;19994;-72
2023/01/06 14:24:06;;;;;;;1.33;1.08;;;;;;;;;;7392013;19;20461;-72
2023/01/06 14:26:54;;;;;;;1.50;1.10;;;;;;;;;;7384627;19;20318;-72
2023/01/06 14:29:38;;;;;;;1.10;0.88;;;;;;;;;;7387533;19;20027;-71
2023/01/06 14:32:13;;;;;;;0.95;0.93;;;;;;;;;;7388465;19;20003;-71
2023/01/06 14:34:53;;;;;;;1.20;1.10;;;;;;;;;;7389850;19;20019;-71
2023/01/06 14:37:23;;;;;;;1.83;0.90;;;;;;;;;;7388651;19;19998;-72
2023/01/06 14:39:50;;;;;;;1.20;1.10;;;;;;;;;;7390780;19;20022;-71
2023/01/06 14:42:20;;;;;;;1.65;1.08;;;;;;;;;;7387434;19;20242;-71
2023/01/06 14:44:50;;;;;;;2.10;1.10;;;;;;;;;;7391596;19;19998;-72
2023/01/06 14:47:48;;;;;;;1.63;1.10;;;;;;;;;;7391010;19;20492;-72
2023/01/06 14:50:16;;;;;;;3.15;1.27;;;;;;;;;;7384857;19;20002;-71
2023/01/06 14:52:49;;;;;;;1.77;1.00;;;;;;;;;;7388616;19;20002;-72
2023/01/06 14:55:18;;;;;;;1.17;1.02;;;;;;;;;;7391242;19;20014;-71
2023/01/06 14:57:44;;;;;;;4.55;1.23;;;;;;;;;;7387352;19;20316;-72
2023/01/06 15:00:25;;;;;;;1.75;1.20;;;;;;;;;;7388386;19;20459;-72
2023/01/06 15:02:53;;;;;;;2.60;1.15;;;;;;;;;;7388774;19;20031;-72
2023/01/06 15:05:27;;;;;;;3.17;1.17;;;;;;;;;;7388236;19;20006;-72
2023/01/06 15:08:08;;;;;;;1.48;0.93;;;;;;;;;;7390079;19;20009;-72
2023/01/06 15:10:38;;;;;;;;;;;;;;;;;;7387530;19;20425;-71